Список аэропортов
Фактическая погода:

26 июня, 22:50
Температура: +28°C (+28.0*)
Ветер: сев.-восточный 8 м/с
Давление: *761 мм
неб. 900 м
Время (МСК)Темп. СВетерВлажностьДавлениеОблачностьОсадки
21:00+26С, 9 м/с66%1014 гПамалооблачно
22:00+26С, 9 м/с68%1014 гПамалооблачно
23:00+26С, 8 м/с69%1014 гПаясно
27 июня
00:00+25С, 8 м/с70%1014 гПаясно
01:00+25С, 8 м/с73%1014 гПаясно
02:00+25С, 9 м/с74%1014 гПамалооблачно
03:00+24С, 9 м/с75%1013 гПамалооблачно
04:00+24С, 10 м/с76%1013 гПас прояснениями
05:00+24С, 10 м/с75%1013 гПамалооблачно
06:00+24С, 9 м/с75%1013 гПамалооблачно
07:00+24С, 10 м/с76%1013 гПамалооблачно
08:00+24С, 10 м/с74%1013 гПас прояснениями
09:00+25С, 10 м/с71%1013 гПас прояснениями
10:00+26С, 10 м/с68%1014 гПас прояснениями
11:00+26С, 10 м/с65%1014 гПас прояснениями
12:00+27С, 10 м/с60%1013 гПамалооблачно
13:00+28С, 10 м/с57%1013 гПамалооблачно
14:00+29С, 9 м/с54%1013 гПаясно
15:00+29С, 9 м/с52%1013 гПаясно
16:00+29С, 9 м/с51%1012 гПаясно
17:00+29С, 9 м/с50%1012 гПаясно
18:00+29С, 8 м/с49%1011 гПаясно
19:00+28С, 8 м/с49%1011 гПаясно
20:00+27С, 7 м/с50%1011 гПаясно
21:00+26С, 5 м/с51%1011 гПаясно
22:00+25СЗ, 5 м/с52%1011 гПаясно
23:00+25СЗ, 5 м/с55%1011 гПаясно
28 июня
00:00+25СЗ, 5 м/с55%1011 гПаясно
01:00+24СЗ, 4 м/с54%1011 гПаясно
02:00+24СЗ, 4 м/с55%1011 гПаясно
03:00+24СЗ, 4 м/с56%1010 гПаясно
04:00+23З, 3 м/с59%1010 гПаясно
05:00+22З, 3 м/с63%1009 гПаясно
06:00+22З, 3 м/с65%1009 гПаясно
07:00+23З, 4 м/с62%1009 гПаясно
08:00+25СЗ, 4 м/с53%1009 гПаясно
09:00+28СЗ, 4 м/с45%1009 гПаясно
10:00+29С, 5 м/с41%1009 гПаясно
11:00+30С, 6 м/с40%1009 гПаясно
12:00+31С, 6 м/с38%1009 гПаясно
13:00+32С, 5 м/с35%1008 гПаясно
14:00+33С, 5 м/с32%1008 гПаясно
15:00+34С, 4 м/с30%1008 гПаясно
16:00+34С, 4 м/с28%1007 гПаясно
17:00+34С, 4 м/с26%1007 гПаясно
18:00+33С, 4 м/с26%1007 гПаясно
19:00+32СВ, 4 м/с32%1007 гПаясно
20:00+30СВ, 4 м/с40%1007 гПаясно
21:00+28С, 2 м/с47%1007 гПаясно